createdAt,value
2018-08-07T00:00:20.385Z,79.47
2018-08-07T00:01:28.335Z,79.19
2018-08-07T00:02:36.695Z,78.90
2018-08-07T00:03:44.493Z,79.19
2018-08-07T00:04:52.582Z,79.38
2018-08-07T00:06:00.633Z,78.99
2018-08-07T00:07:10.173Z,79.76
2018-08-07T00:08:16.758Z,79.19
2018-08-07T00:09:24.850Z,79.38
2018-08-07T00:10:32.905Z,79.09
2018-08-07T00:11:42.058Z,78.99
2018-08-07T00:12:49.056Z,79.47
2018-08-07T00:13:57.177Z,79.38
2018-08-07T00:15:05.182Z,78.99
2018-08-07T00:16:13.308Z,79.19
2018-08-07T00:17:21.352Z,78.99
2018-08-07T00:18:29.413Z,78.90
2018-08-07T00:19:37.495Z,78.99
2018-08-07T00:20:45.537Z,78.90
2018-08-07T00:21:55.082Z,78.90
2018-08-07T00:23:01.700Z,78.70
2018-08-07T00:24:09.777Z,78.80
2018-08-07T00:25:17.858Z,79.09
2018-08-07T00:26:27.398Z,78.80
2018-08-07T00:27:33.992Z,78.90
2018-08-07T00:28:42.092Z,79.09
2018-08-07T00:29:50.436Z,78.80
2018-08-07T00:30:58.367Z,78.90
2018-08-07T00:32:06.563Z,78.61
2018-08-07T00:33:14.378Z,78.99
2018-08-07T00:34:22.415Z,78.90
2018-08-07T00:35:30.703Z,78.70
2018-08-07T00:36:38.553Z,78.70
2018-08-07T00:37:46.702Z,78.90
2018-08-07T00:38:54.718Z,79.19
2018-08-07T00:40:02.783Z,78.90
2018-08-07T00:41:10.848Z,79.47
2018-08-07T00:42:18.925Z,79.28
2018-08-07T00:43:26.993Z,79.28
2018-08-07T00:44:35.053Z,79.19
2018-08-07T00:45:43.296Z,79.28
2018-08-07T00:46:51.207Z,79.47
2018-08-07T00:48:00.750Z,79.19
2018-08-07T00:49:07.387Z,79.28
2018-08-07T00:50:15.461Z,79.28
2018-08-07T00:51:23.491Z,79.28
2018-08-07T00:52:35.191Z,79.38
2018-08-07T00:53:39.642Z,79.57
2018-08-07T00:54:48.005Z,79.14
2018-08-07T00:55:55.756Z,78.99
2018-08-07T00:57:03.966Z,79.24
2018-08-07T00:58:11.921Z,79.24
2018-08-07T00:59:20.477Z,79.24
2018-08-07T01:00:28.050Z,79.63
2018-08-07T01:01:36.136Z,79.53
2018-08-07T01:02:44.192Z,79.82
2018-08-07T01:03:52.338Z,79.72
2018-08-07T01:05:00.342Z,79.63
2018-08-07T01:06:09.036Z,79.44
2018-08-07T01:07:16.472Z,79.53
2018-08-07T01:08:24.575Z,79.72
2018-08-07T01:09:32.718Z,79.14
2018-08-07T01:10:40.691Z,78.96
2018-08-07T01:11:48.761Z,79.14
2018-08-07T01:12:56.843Z,79.14
2018-08-07T01:14:04.891Z,79.14
2018-08-07T01:15:12.980Z,79.44
2018-08-07T01:16:21.064Z,79.05
2018-08-07T01:17:29.132Z,79.24
2018-08-07T01:18:37.219Z,78.96
2018-08-07T01:19:45.261Z,79.30
2018-08-07T01:20:53.360Z,79.11
2018-08-07T01:22:01.403Z,78.86
2018-08-07T01:23:12.901Z,78.96
2018-08-07T01:24:17.546Z,78.57
2018-08-07T01:25:25.612Z,78.67
2018-08-07T01:26:46.490Z,78.57
2018-08-07T01:27:41.788Z,78.57
2018-08-07T01:28:49.880Z,78.57
2018-08-07T01:29:57.928Z,78.57
2018-08-07T01:31:05.955Z,78.96
2018-08-07T01:32:14.065Z,78.96
2018-08-07T01:33:22.112Z,78.96
2018-08-07T01:34:30.206Z,78.86
2018-08-07T01:35:38.265Z,78.82
2018-08-07T01:36:46.322Z,78.96
2018-08-07T01:37:54.399Z,79.24
2018-08-07T01:39:02.474Z,78.92
2018-08-07T01:40:10.548Z,79.68
2018-08-07T01:41:18.620Z,79.30
2018-08-07T01:42:28.094Z,79.30
2018-08-07T01:43:34.758Z,79.30
2018-08-07T01:44:45.262Z,78.72
2018-08-07T01:47:08.055Z,79.01
2018-08-07T01:48:16.322Z,79.11
2018-08-07T01:49:24.456Z,79.21
2018-08-07T01:50:32.478Z,79.11
2018-08-07T01:51:40.555Z,79.49
2018-08-07T01:52:48.707Z,79.68
2018-08-07T01:53:59.063Z,79.68
2018-08-07T01:55:04.852Z,79.01
2018-08-07T01:56:12.853Z,79.21
2018-08-07T01:57:20.885Z,79.30
2018-08-07T01:58:28.988Z,79.49
2018-08-07T01:59:37.043Z,79.21
2018-08-07T02:00:45.116Z,79.30
2018-08-07T02:01:53.188Z,79.11
2018-08-07T02:03:04.643Z,79.01
2018-08-07T02:04:09.412Z,79.11
2018-08-07T02:05:17.406Z,79.21
2018-08-07T02:06:25.426Z,79.21
2018-08-07T02:07:33.835Z,79.11
2018-08-07T02:08:41.613Z,78.78
2018-08-07T02:09:49.939Z,78.11
2018-08-07T02:10:57.727Z,78.44
2018-08-07T02:12:05.778Z,78.53
2018-08-07T02:13:13.883Z,78.40
2018-08-07T02:14:21.961Z,78.49
2018-08-07T02:15:30.041Z,78.44
2018-08-07T02:16:38.093Z,78.82
2018-08-07T02:17:49.572Z,78.49
2018-08-07T02:18:54.349Z,78.59
2018-08-07T02:20:04.225Z,78.30
2018-08-07T02:21:10.426Z,78.78
2018-08-07T02:22:18.469Z,78.69
2018-08-07T02:23:26.518Z,78.78
2018-08-07T02:24:34.711Z,78.49
2018-08-07T02:25:42.942Z,78.78
2018-08-07T02:26:50.755Z,78.49
2018-08-07T02:27:58.801Z,78.40
2018-08-07T02:29:06.937Z,78.20
2018-08-07T02:30:14.940Z,78.49
2018-08-07T02:31:23.036Z,78.30
2018-08-07T02:32:31.232Z,78.59
2018-08-07T02:33:39.167Z,78.49
2018-08-07T02:34:47.285Z,78.88
2018-08-07T02:35:55.289Z,78.59
2018-08-07T02:37:03.420Z,79.26
2018-08-07T02:38:11.451Z,79.07
2018-08-07T02:39:19.510Z,79.83
2018-08-07T02:40:27.655Z,79.83
2018-08-07T02:41:35.670Z,79.07
2018-08-07T02:42:43.738Z,79.07
2018-08-07T02:43:51.847Z,79.45
2018-08-07T02:44:59.871Z,79.64
2018-08-07T02:46:07.956Z,79.41
2018-08-07T02:47:15.987Z,79.64
2018-08-07T02:48:24.105Z,79.74
2018-08-07T02:49:32.150Z,79.64
2018-08-07T02:50:40.236Z,78.88
2018-08-07T02:51:48.304Z,79.36
2018-08-07T02:52:56.381Z,79.26
2018-08-07T02:54:04.458Z,78.97
2018-08-07T02:55:12.615Z,79.03
2018-08-07T02:56:20.578Z,79.22
2018-08-07T02:57:28.656Z,79.13
2018-08-07T02:58:36.726Z,79.22
2018-08-07T02:59:44.789Z,79.13
2018-08-07T03:00:52.858Z,79.03
2018-08-07T03:02:00.949Z,78.84
2018-08-07T03:03:09.002Z,79.03
2018-08-07T03:04:17.090Z,78.55
2018-08-07T03:05:25.319Z,78.74
2018-08-07T03:06:36.866Z,78.55
2018-08-07T03:07:41.483Z,79.03
2018-08-07T03:08:49.781Z,79.03
2018-08-07T03:09:57.818Z,78.64
2018-08-07T03:11:05.896Z,79.03
2018-08-07T03:12:13.976Z,78.84
2018-08-07T03:13:22.049Z,78.84
2018-08-07T03:14:30.085Z,79.03
2018-08-07T03:15:38.201Z,79.13
2018-08-07T03:16:46.237Z,79.22
2018-08-07T03:17:54.916Z,79.22
2018-08-07T03:19:03.393Z,78.84
2018-08-07T03:20:11.057Z,78.74
2018-08-07T03:21:21.570Z,78.27
2018-08-07T03:22:29.607Z,78.27
2018-08-07T03:23:37.688Z,78.45
2018-08-07T03:24:45.714Z,78.45
2018-08-07T03:25:53.886Z,78.64
2018-08-07T03:27:01.889Z,78.84
2018-08-07T03:28:13.320Z,78.45
2018-08-07T03:29:18.024Z,78.27
2018-08-07T03:30:26.072Z,78.64
2018-08-07T03:31:34.163Z,78.84
2018-08-07T03:32:42.252Z,78.36
2018-08-07T03:33:50.294Z,78.17
2018-08-07T03:35:01.779Z,78.17
2018-08-07T03:36:06.449Z,78.36
2018-08-07T03:37:14.714Z,78.45
2018-08-07T03:38:22.790Z,78.27
2018-08-07T03:39:31.123Z,77.88
2018-08-07T03:40:38.923Z,77.88
2018-08-07T03:41:48.442Z,77.97
2018-08-07T03:42:55.062Z,78.17
2018-08-07T03:44:03.146Z,78.36
2018-08-07T03:45:11.262Z,77.88
2018-08-07T03:46:19.585Z,77.31
2018-08-07T03:47:27.775Z,76.82
2018-08-07T03:48:35.617Z,77.31
2018-08-07T03:49:43.854Z,77.11
2018-08-07T03:50:51.760Z,77.11
2018-08-07T03:51:59.827Z,76.82
2018-08-07T03:53:07.926Z,77.06
2018-08-07T03:54:15.963Z,77.15
2018-08-07T03:55:24.032Z,77.15
2018-08-07T03:56:32.125Z,76.39
2018-08-07T03:57:43.776Z,76.29
2018-08-07T03:58:48.259Z,76.48
2018-08-07T03:59:59.984Z,76.48
2018-08-07T04:01:04.403Z,76.00
2018-08-07T04:02:14.097Z,76.19
2018-08-07T04:03:20.546Z,76.29
2018-08-07T04:04:32.040Z,76.77
2018-08-07T04:05:36.693Z,76.48
2018-08-07T04:06:44.752Z,76.48
2018-08-07T04:07:52.835Z,76.57
2018-08-07T04:09:02.488Z,76.57
2018-08-07T04:10:08.974Z,76.19
2018-08-07T04:11:17.104Z,76.19
2018-08-07T04:12:25.112Z,76.52
2018-08-07T04:13:33.203Z,76.42
2018-08-07T04:14:41.256Z,76.04
2018-08-07T04:15:49.358Z,76.39
2018-08-07T04:16:57.410Z,76.29
2018-08-07T04:18:05.472Z,76.14
2018-08-07T04:19:13.561Z,76.23
2018-08-07T04:20:21.631Z,76.23
2018-08-07T04:21:29.680Z,76.04
2018-08-07T04:22:37.786Z,76.14
2018-08-07T04:23:45.990Z,76.04
2018-08-07T04:24:53.904Z,76.23
2018-08-07T04:26:02.342Z,76.42
2018-08-07T04:27:10.267Z,76.71
2018-08-07T04:28:18.330Z,77.38
2018-08-07T04:29:26.413Z,76.62
2018-08-07T04:30:34.474Z,76.90
2018-08-07T04:31:42.604Z,77.19
2018-08-07T04:32:53.873Z,77.00
2018-08-07T04:33:58.688Z,77.00
2018-08-07T04:35:06.751Z,76.90
2018-08-07T04:36:14.839Z,77.00
2018-08-07T04:37:22.896Z,76.71
2018-08-07T04:38:30.983Z,76.81
2018-08-07T04:39:39.237Z,76.81
2018-08-07T04:42:00.238Z,77.09
2018-08-07T04:43:07.682Z,76.81
2018-08-07T04:44:15.731Z,76.71
2018-08-07T04:45:25.169Z,76.81
2018-08-07T04:46:31.893Z,77.09
2018-08-07T04:47:40.036Z,76.90
2018-08-07T04:48:48.022Z,77.00
2018-08-07T04:49:56.077Z,77.19
2018-08-07T04:51:04.156Z,76.32
2018-08-07T04:52:12.238Z,76.62
2018-08-07T04:53:20.297Z,76.65
2018-08-07T04:54:28.391Z,77.09
2018-08-07T04:55:36.442Z,76.56
2018-08-07T04:56:44.530Z,76.46
2018-08-07T04:57:52.634Z,76.62
2018-08-07T04:59:00.653Z,76.56
2018-08-07T05:00:08.752Z,76.46
2018-08-07T05:01:16.812Z,76.56
2018-08-07T05:02:25.261Z,76.56
2018-08-07T05:03:34.372Z,76.37
2018-08-07T05:04:41.068Z,76.56
2018-08-07T05:05:49.076Z,76.65
2018-08-07T05:06:57.148Z,76.94
2018-08-07T05:08:08.648Z,77.42
2018-08-07T05:09:13.664Z,77.23
2018-08-07T05:10:21.515Z,77.13
2018-08-07T05:11:30.242Z,76.69
2018-08-07T05:12:37.476Z,77.08
2018-08-07T05:13:45.536Z,77.36
2018-08-07T05:14:53.601Z,77.75
2018-08-07T05:16:01.699Z,78.52
2018-08-07T05:17:09.807Z,78.32
2018-08-07T05:18:17.834Z,78.61
2018-08-07T05:19:25.891Z,79.22
2018-08-07T05:20:33.993Z,82.40
2018-08-07T05:21:42.010Z,81.53
2018-08-07T05:22:50.275Z,81.72
2018-08-07T05:23:58.160Z,81.92
2018-08-07T05:25:06.206Z,82.10
2018-08-07T05:26:14.284Z,81.92
2018-08-07T05:27:22.356Z,83.11
2018-08-07T05:28:30.422Z,82.53
2018-08-07T05:29:38.505Z,83.20
2018-08-07T05:30:46.572Z,83.49
2018-08-07T05:31:54.649Z,83.40
2018-08-07T05:33:02.724Z,83.63
2018-08-07T05:34:10.782Z,84.01
2018-08-07T05:35:19.114Z,83.63
2018-08-07T05:36:26.914Z,84.88
2018-08-07T05:37:34.983Z,85.27
2018-08-07T05:38:43.076Z,85.07
2018-08-07T05:39:51.160Z,85.02
2018-08-07T05:40:59.199Z,85.02
2018-08-07T05:42:07.283Z,85.69
2018-08-07T05:43:15.325Z,84.92
2018-08-07T05:44:23.444Z,85.21
2018-08-07T05:45:31.480Z,85.44
2018-08-07T05:46:39.577Z,86.02
2018-08-07T05:47:47.645Z,85.06
2018-08-07T05:48:55.694Z,86.69
2018-08-07T05:50:03.902Z,85.16
2018-08-07T05:51:12.324Z,85.00
2018-08-07T05:52:19.938Z,85.97
2018-08-07T05:53:28.001Z,85.97
2018-08-07T05:54:36.166Z,84.81
2018-08-07T05:55:44.160Z,84.81
2018-08-07T05:56:54.546Z,86.07
2018-08-07T05:58:00.521Z,86.01
2018-08-07T05:59:10.057Z,85.91
2018-08-07T06:00:16.458Z,85.24
2018-08-07T06:01:24.825Z,84.95
2018-08-07T06:02:32.613Z,85.91
2018-08-07T06:03:40.687Z,86.21
2018-08-07T06:04:48.757Z,85.34
2018-08-07T06:05:56.884Z,86.40
2018-08-07T06:07:05.099Z,85.43
2018-08-07T06:08:13.213Z,85.34
2018-08-07T06:09:21.624Z,85.14
2018-08-07T06:10:29.324Z,85.34
2018-08-07T06:11:37.405Z,84.18
2018-08-07T06:12:45.466Z,84.18
2018-08-07T06:13:53.552Z,84.95
2018-08-07T06:15:01.623Z,85.24
2018-08-07T06:16:10.064Z,85.82
2018-08-07T06:17:18.054Z,84.56
2018-08-07T06:18:25.828Z,85.63
2018-08-07T06:19:33.933Z,84.86
2018-08-07T06:20:44.864Z,83.22
2018-08-07T06:21:50.677Z,83.31
2018-08-07T06:23:01.549Z,83.51
2018-08-07T06:24:06.217Z,83.41
2018-08-07T06:25:15.814Z,83.22
2018-08-07T06:26:22.465Z,82.74
2018-08-07T06:27:30.451Z,83.41
2018-08-07T06:28:38.650Z,83.74
2018-08-07T06:29:46.611Z,83.16
2018-08-07T06:30:54.675Z,82.20
2018-08-07T06:32:02.755Z,82.68
2018-08-07T06:33:11.093Z,83.07
2018-08-07T06:34:18.910Z,83.84
2018-08-07T06:35:26.965Z,84.99
2018-08-07T06:36:35.064Z,82.87
2018-08-07T06:37:43.181Z,80.37
2018-08-07T06:38:51.225Z,81.43
2018-08-07T06:39:59.269Z,81.43
2018-08-07T06:41:07.462Z,80.08
2018-08-07T06:42:15.396Z,80.46
2018-08-07T06:43:23.601Z,81.91
2018-08-07T06:44:31.565Z,82.20
2018-08-07T06:45:39.636Z,81.43
2018-08-07T06:46:47.699Z,82.14
2018-08-07T06:47:55.799Z,80.89
2018-08-07T06:49:05.262Z,80.41
2018-08-07T06:50:12.182Z,80.79
2018-08-07T06:51:21.956Z,83.59
2018-08-07T06:52:28.375Z,79.83
2018-08-07T06:53:36.510Z,80.51
2018-08-07T06:54:44.424Z,79.35
2018-08-07T06:55:52.532Z,79.77
2018-08-07T06:57:00.610Z,78.13
2018-08-07T06:58:08.944Z,77.55
2018-08-07T06:59:16.725Z,77.84
2018-08-07T07:00:24.819Z,77.36
2018-08-07T07:01:32.879Z,77.26
2018-08-07T07:02:41.040Z,77.46
2018-08-07T07:03:49.025Z,78.33
2018-08-07T07:04:57.275Z,77.75
2018-08-07T07:06:05.363Z,78.61
2018-08-07T07:07:13.732Z,78.61
2018-08-07T07:08:21.527Z,78.08
2018-08-07T07:09:29.660Z,79.24
2018-08-07T07:10:37.670Z,77.69
2018-08-07T07:11:45.710Z,75.27
2018-08-07T07:12:53.822Z,75.27
2018-08-07T07:14:01.900Z,75.76
2018-08-07T07:15:11.395Z,76.82
2018-08-07T07:16:18.036Z,78.17
2018-08-07T07:17:27.597Z,78.41
2018-08-07T07:18:34.281Z,78.59
2018-08-07T07:19:43.880Z,77.92
2018-08-07T07:20:50.469Z,76.18
2018-08-07T07:21:58.446Z,75.41
2018-08-07T07:23:06.491Z,76.03
2018-08-07T07:24:15.498Z,73.80
2018-08-07T07:25:22.660Z,75.06
2018-08-07T07:26:31.172Z,74.71
2018-08-07T07:27:38.809Z,73.68
2018-08-07T07:28:48.183Z,72.75
2018-08-07T07:29:54.948Z,72.95
2018-08-07T07:31:03.036Z,70.66
2018-08-07T07:32:11.098Z,69.63
2018-08-07T07:33:19.206Z,68.54
2018-08-07T07:34:27.327Z,64.82
2018-08-07T07:35:35.403Z,62.71
2018-08-07T07:36:43.430Z,60.05
2018-08-07T07:37:51.681Z,59.08
2018-08-07T07:38:59.566Z,58.92
2018-08-07T07:40:07.655Z,57.78
2018-08-07T07:41:15.727Z,56.37
2018-08-07T07:42:23.824Z,54.55
2018-08-07T07:43:31.875Z,54.48
2018-08-07T07:44:39.959Z,56.07
2018-08-07T07:45:48.040Z,56.68
2018-08-07T07:46:56.384Z,56.02
2018-08-07T07:48:04.410Z,55.54
2018-08-07T07:49:12.481Z,52.31
2018-08-07T07:50:20.846Z,52.12
2018-08-07T07:51:28.640Z,51.95
2018-08-07T07:52:36.863Z,54.22
2018-08-07T07:53:44.807Z,51.32
2018-08-07T07:54:52.903Z,50.63
2018-08-07T07:56:01.173Z,51.22
2018-08-07T07:57:09.064Z,50.05
2018-08-07T07:58:17.599Z,50.56
2018-08-07T07:59:26.912Z,51.42
2018-08-07T08:00:36.089Z,50.07
2018-08-07T08:01:42.768Z,50.07
2018-08-07T08:02:50.860Z,48.41
2018-08-07T08:03:59.031Z,48.04
2018-08-07T08:05:13.182Z,46.28
2018-08-07T08:06:15.147Z,45.86
2018-08-07T08:07:23.201Z,48.21
2018-08-07T08:08:31.639Z,49.55
2018-08-07T08:09:39.371Z,48.65
2018-08-07T08:10:47.475Z,48.46
2018-08-07T08:11:55.512Z,47.77
2018-08-07T08:13:09.228Z,49.33
2018-08-07T08:14:13.764Z,49.04
2018-08-07T08:15:19.777Z,47.21
2018-08-07T08:16:30.686Z,47.70
2018-08-07T08:17:36.566Z,46.16
2018-08-07T08:18:44.637Z,47.92
2018-08-07T08:19:52.872Z,45.28
2018-08-07T08:21:00.818Z,44.89
2018-08-07T08:22:08.900Z,46.26
2018-08-07T08:23:16.992Z,47.04
2018-08-07T08:24:25.072Z,46.53
2018-08-07T08:25:33.170Z,48.19
2018-08-07T08:26:41.458Z,47.80
2018-08-07T08:27:49.660Z,48.68
2018-08-07T08:28:57.694Z,46.70
2018-08-07T08:30:05.860Z,47.70
2018-08-07T08:31:14.039Z,47.99
2018-08-07T08:32:21.872Z,47.70
2018-08-07T08:33:29.971Z,50.05
2018-08-07T08:34:38.043Z,48.77
2018-08-07T08:35:46.217Z,49.92
2018-08-07T08:36:54.213Z,49.14
2018-08-07T08:38:02.344Z,48.26
2018-08-07T08:39:10.651Z,50.12
2018-08-07T08:40:18.462Z,47.60
2018-08-07T08:41:26.602Z,47.21
2018-08-07T08:42:34.638Z,46.31
2018-08-07T08:43:42.715Z,46.99
2018-08-07T08:44:50.792Z,45.14
2018-08-07T08:46:01.518Z,45.31
2018-08-07T08:47:09.708Z,46.80
2018-08-07T08:48:17.713Z,46.11
2018-08-07T08:49:25.889Z,47.19
2018-08-07T08:50:34.064Z,46.99
2018-08-07T08:51:42.161Z,47.28
2018-08-07T08:52:50.228Z,46.09
2018-08-07T08:53:58.375Z,46.99
2018-08-07T08:55:06.780Z,46.80
2018-08-07T08:56:14.487Z,47.19
2018-08-07T08:57:22.575Z,47.17
2018-08-07T08:58:30.661Z,46.88
2018-08-07T08:59:38.778Z,48.36
2018-08-07T09:00:46.831Z,48.16
2018-08-07T09:01:54.945Z,46.97
2018-08-07T09:03:03.019Z,46.88
2018-08-07T09:04:11.120Z,46.78
2018-08-07T09:05:19.193Z,46.58
2018-08-07T09:06:27.289Z,47.85
2018-08-07T09:07:35.336Z,46.31
2018-08-07T09:08:43.458Z,46.82
2018-08-07T09:09:51.525Z,45.94
2018-08-07T09:10:59.622Z,44.89
2018-08-07T09:12:07.733Z,45.16
2018-08-07T09:13:15.780Z,47.11
2018-08-07T09:14:24.115Z,46.99
2018-08-07T09:15:31.965Z,48.24
2018-08-07T09:16:40.146Z,48.93
2018-08-07T09:17:48.138Z,48.32
2018-08-07T09:18:56.264Z,48.51
2018-08-07T09:20:04.311Z,48.93
2018-08-07T09:21:12.376Z,49.41
2018-08-07T09:22:24.113Z,47.85
2018-08-07T09:23:32.200Z,47.83
2018-08-07T09:24:40.250Z,49.39
2018-08-07T09:25:48.712Z,48.90
2018-08-07T09:26:59.493Z,49.39
2018-08-07T09:28:04.511Z,49.46
2018-08-07T09:29:12.590Z,49.39
2018-08-07T09:30:20.728Z,48.02
2018-08-07T09:31:28.931Z,48.12
2018-08-07T09:32:36.840Z,48.24
2018-08-07T09:33:45.028Z,49.12
2018-08-07T09:34:53.208Z,49.41
2018-08-07T09:36:01.263Z,47.66
2018-08-07T09:37:09.504Z,48.73
2018-08-07T09:38:17.419Z,48.05
2018-08-07T09:39:25.609Z,49.02
2018-08-07T09:40:33.584Z,49.00
2018-08-07T09:41:41.680Z,49.27
2018-08-07T09:42:49.992Z,48.58
2018-08-07T09:43:58.056Z,49.95
2018-08-07T09:45:06.113Z,47.83
2018-08-07T09:46:14.228Z,48.71
2018-08-07T09:47:22.654Z,48.41
2018-08-07T09:48:30.380Z,50.46
2018-08-07T09:49:38.472Z,48.61
2018-08-07T09:50:48.091Z,48.90
2018-08-07T09:51:55.215Z,48.02
2018-08-07T09:53:02.734Z,50.65
2018-08-07T09:54:10.750Z,51.61
2018-08-07T09:55:18.844Z,48.80
2018-08-07T09:56:27.533Z,49.39
2018-08-07T09:57:35.010Z,52.41
2018-08-07T09:58:43.787Z,49.29
2018-08-07T09:59:51.192Z,49.10
2018-08-07T10:00:59.266Z,47.92
2018-08-07T10:02:07.783Z,48.51
2018-08-07T10:03:15.414Z,47.83
2018-08-07T10:04:23.491Z,49.88
2018-08-07T10:05:31.677Z,47.92
2018-08-07T10:06:43.685Z,49.49
2018-08-07T10:07:51.858Z,48.29
2018-08-07T10:08:59.864Z,47.80
2018-08-07T10:10:09.022Z,47.71
2018-08-07T10:11:16.017Z,46.66
2018-08-07T10:12:24.137Z,48.10
2018-08-07T10:13:32.349Z,47.09
2018-08-07T10:14:40.277Z,48.95
2018-08-07T10:15:48.359Z,50.90
2018-08-07T10:16:56.431Z,49.83
2018-08-07T10:18:04.504Z,47.68
2018-08-07T10:19:12.586Z,49.93
2018-08-07T10:20:20.706Z,49.83
2018-08-07T10:21:28.769Z,49.54
2018-08-07T10:22:36.837Z,50.80
2018-08-07T10:23:45.055Z,49.34
2018-08-07T10:24:53.010Z,50.51
2018-08-07T10:26:01.088Z,50.31
2018-08-07T10:27:09.212Z,48.78
2018-08-07T10:28:17.255Z,50.24
2018-08-07T10:29:25.308Z,52.00
2018-08-07T10:30:33.702Z,49.95
2018-08-07T10:31:41.494Z,48.78
2018-08-07T10:32:49.854Z,49.95
2018-08-07T10:33:57.644Z,48.58
2018-08-07T10:35:05.757Z,49.46
2018-08-07T10:36:13.841Z,49.07
2018-08-07T10:37:21.870Z,48.19
2018-08-07T10:38:29.961Z,48.95
2018-08-07T10:39:38.040Z,49.93
2018-08-07T10:40:46.214Z,49.12
2018-08-07T10:41:54.167Z,50.97
2018-08-07T10:43:04.000Z,48.83
2018-08-07T10:44:10.540Z,50.16
2018-08-07T10:45:19.889Z,49.68
2018-08-07T10:46:26.583Z,51.14
2018-08-07T10:47:34.677Z,50.95
2018-08-07T10:48:42.672Z,51.70
2018-08-07T10:49:50.782Z,51.02
2018-08-07T10:50:58.841Z,52.19
2018-08-07T10:52:07.163Z,50.63
2018-08-07T10:53:15.195Z,51.51
2018-08-07T10:54:23.356Z,51.53
2018-08-07T10:56:48.525Z,51.07
2018-08-07T10:57:56.637Z,50.87
2018-08-07T10:59:04.677Z,49.83
2018-08-07T11:00:12.762Z,49.34
2018-08-07T11:01:20.852Z,50.92
2018-08-07T11:02:28.933Z,50.34
2018-08-07T11:03:37.017Z,51.21
2018-08-07T11:04:45.151Z,50.14
2018-08-07T11:05:53.252Z,50.04
2018-08-07T11:07:01.338Z,49.95
2018-08-07T11:08:09.359Z,49.07
2018-08-07T11:09:21.063Z,51.63
2018-08-07T11:10:27.707Z,52.09
2018-08-07T11:11:35.959Z,53.17
2018-08-07T11:12:44.068Z,53.36
2018-08-07T11:13:52.226Z,51.21
2018-08-07T11:15:00.241Z,52.19
2018-08-07T11:16:08.317Z,52.58
2018-08-07T11:17:16.375Z,53.46
2018-08-07T11:18:24.665Z,54.73
2018-08-07T11:19:32.753Z,48.88
2018-08-07T11:20:42.293Z,51.80
2018-08-07T11:21:48.914Z,47.92
2018-08-07T11:22:57.306Z,49.58
2018-08-07T11:24:05.272Z,46.97
2018-08-07T11:25:17.815Z,49.80
2018-08-07T11:26:21.538Z,49.71
2018-08-07T11:27:33.090Z,49.22
2018-08-07T11:28:37.699Z,48.73
2018-08-07T11:29:45.678Z,49.33
2018-08-07T11:30:53.770Z,50.71
2018-08-07T11:32:01.926Z,48.75
2018-08-07T11:33:09.920Z,52.10
2018-08-07T11:34:18.208Z,51.39
2018-08-07T11:35:26.282Z,50.22
2018-08-07T11:36:34.376Z,51.68
2018-08-07T11:37:42.489Z,50.22
2018-08-07T11:38:50.841Z,48.93
2018-08-07T11:39:58.619Z,50.20
2018-08-07T11:41:06.698Z,52.22
2018-08-07T11:42:14.777Z,50.07
2018-08-07T11:43:22.863Z,50.46
2018-08-07T11:44:30.946Z,51.63
2018-08-07T11:45:39.021Z,49.88
2018-08-07T11:46:47.198Z,49.58
2018-08-07T11:47:55.199Z,52.64
2018-08-07T11:49:03.270Z,51.37
2018-08-07T11:50:11.368Z,50.29
2018-08-07T11:51:19.410Z,51.66
2018-08-07T11:52:27.527Z,50.02
2018-08-07T11:53:35.553Z,48.75
2018-08-07T11:54:43.724Z,47.97
2018-08-07T11:55:51.734Z,47.58
2018-08-07T11:56:59.826Z,48.07
2018-08-07T11:58:07.916Z,49.33
2018-08-07T11:59:15.971Z,50.90
2018-08-07T12:00:24.056Z,49.04
2018-08-07T12:01:32.158Z,47.09
2018-08-07T12:02:40.509Z,48.94
2018-08-07T12:03:48.505Z,48.55
2018-08-07T12:04:56.579Z,47.97
2018-08-07T12:06:04.697Z,46.70
2018-08-07T12:07:12.747Z,49.61
2018-08-07T12:08:21.020Z,48.14
2018-08-07T12:09:29.281Z,49.43
2018-08-07T12:10:37.181Z,48.16
2018-08-07T12:11:49.737Z,48.07
2018-08-07T12:12:53.342Z,48.07
2018-08-07T12:14:03.758Z,45.94
2018-08-07T12:15:09.754Z,47.11
2018-08-07T12:16:19.242Z,46.04
2018-08-07T12:17:25.865Z,46.84
2018-08-07T12:18:33.974Z,47.26
2018-08-07T12:19:45.360Z,45.01
2018-08-07T12:20:50.119Z,45.30
2018-08-07T12:21:58.209Z,45.01
2018-08-07T12:23:06.633Z,44.23
2018-08-07T12:24:14.684Z,44.91
2018-08-07T12:25:22.490Z,45.89
2018-08-07T12:26:30.739Z,46.57
2018-08-07T12:27:38.824Z,45.98
2018-08-07T12:28:47.154Z,44.81
2018-08-07T12:29:54.967Z,45.97
2018-08-07T12:31:03.060Z,47.26
2018-08-07T12:32:11.147Z,44.44
2018-08-07T12:33:20.103Z,46.77
2018-08-07T12:34:27.593Z,45.98
2018-08-07T12:35:35.549Z,45.59
2018-08-07T12:36:43.669Z,46.55
2018-08-07T12:37:55.400Z,46.04
2018-08-07T12:38:59.826Z,44.28
2018-08-07T12:40:07.921Z,45.94
2018-08-07T12:41:16.051Z,45.75
2018-08-07T12:42:24.089Z,47.09
2018-08-07T12:43:32.149Z,47.67
2018-08-07T12:44:40.254Z,45.92
2018-08-07T12:45:48.311Z,48.34
2018-08-07T12:46:56.417Z,46.78
2018-08-07T12:48:04.467Z,46.19
2018-08-07T12:49:12.815Z,46.26
2018-08-07T12:50:20.627Z,46.83
2018-08-07T12:51:28.732Z,47.19
2018-08-07T12:52:37.057Z,47.85
2018-08-07T12:53:44.970Z,48.32
2018-08-07T12:54:53.067Z,51.48
2018-08-07T12:56:01.053Z,50.87
2018-08-07T12:57:09.379Z,52.14
2018-08-07T12:58:17.202Z,52.31
2018-08-07T12:59:25.265Z,52.11
2018-08-07T13:00:33.360Z,51.62
2018-08-07T13:01:41.441Z,54.25
2018-08-07T13:02:49.522Z,52.89
2018-08-07T13:03:57.615Z,55.80
2018-08-07T13:05:07.090Z,53.57
2018-08-07T13:06:13.771Z,53.47
2018-08-07T13:07:21.832Z,52.04
2018-08-07T13:08:29.949Z,51.77
2018-08-07T13:09:37.998Z,48.36
2018-08-07T13:10:46.096Z,51.19
2018-08-07T13:11:55.181Z,47.88
2018-08-07T13:13:02.253Z,49.37
2018-08-07T13:14:10.348Z,49.37
2018-08-07T13:15:18.396Z,49.66
2018-08-07T13:16:26.463Z,48.49
2018-08-07T13:17:34.618Z,47.90
2018-08-07T13:18:42.629Z,47.52
2018-08-07T13:19:51.338Z,48.19
2018-08-07T13:20:58.922Z,49.24
2018-08-07T13:22:06.868Z,48.95
2018-08-07T13:23:15.148Z,49.73
2018-08-07T13:24:23.220Z,51.17
2018-08-07T13:25:31.418Z,52.36
2018-08-07T13:26:39.440Z,51.58
2018-08-07T13:27:48.877Z,52.55
2018-08-07T13:28:55.613Z,51.58
2018-08-07T13:30:03.623Z,52.36
2018-08-07T13:31:11.759Z,52.14
2018-08-07T13:32:19.775Z,53.50
2018-08-07T13:33:27.872Z,55.35
2018-08-07T13:34:35.916Z,56.10
2018-08-07T13:35:44.229Z,56.49
2018-08-07T13:36:52.351Z,56.59
2018-08-07T13:38:00.374Z,57.07
2018-08-07T13:39:08.463Z,57.17
2018-08-07T13:40:16.532Z,57.36
2018-08-07T13:41:26.096Z,58.14
2018-08-07T13:42:32.685Z,56.87
2018-08-07T13:43:40.780Z,55.93
2018-08-07T13:44:48.860Z,55.64
2018-08-07T13:45:58.350Z,55.93
2018-08-07T13:47:05.018Z,55.05
2018-08-07T13:48:13.202Z,56.12
2018-08-07T13:49:21.188Z,55.18
2018-08-07T13:50:29.288Z,56.15
2018-08-07T13:51:37.350Z,56.64
2018-08-07T13:52:45.419Z,57.32
2018-08-07T13:53:53.491Z,54.40
2018-08-07T13:55:01.602Z,54.30
2018-08-07T13:56:09.646Z,55.83
2018-08-07T13:57:17.793Z,55.54
2018-08-07T13:58:25.803Z,55.25
2018-08-07T13:59:33.902Z,54.76
2018-08-07T14:00:42.324Z,56.10
2018-08-07T14:01:51.244Z,57.53
2018-08-07T14:03:00.732Z,57.72
2018-08-07T14:04:08.804Z,56.46
2018-08-07T14:05:15.534Z,57.01
2018-08-07T14:07:39.099Z,59.74
2018-08-07T14:08:47.184Z,61.07
2018-08-07T14:09:55.235Z,60.38
2018-08-07T14:11:03.940Z,60.97
2018-08-07T14:12:11.657Z,61.45
2018-08-07T14:13:19.479Z,61.84
2018-08-07T14:14:27.534Z,62.81
2018-08-07T14:15:35.672Z,62.91
2018-08-07T14:16:43.711Z,62.68
2018-08-07T14:17:51.891Z,62.10
2018-08-07T14:18:59.864Z,64.33
2018-08-07T14:20:07.970Z,65.59
2018-08-07T14:21:16.003Z,65.69
2018-08-07T14:22:24.119Z,66.47
2018-08-07T14:23:32.380Z,70.51
2018-08-07T14:24:40.501Z,73.52
2018-08-07T14:25:48.626Z,75.03
2018-08-07T14:26:56.646Z,75.87
2018-08-07T14:28:04.742Z,76.06
2018-08-07T14:29:12.796Z,78.44
2018-08-07T14:30:21.200Z,78.41
2018-08-07T14:31:28.956Z,77.63
2018-08-07T14:32:37.000Z,78.75
2018-08-07T14:33:45.092Z,78.75
2018-08-07T14:34:53.153Z,78.46
2018-08-07T14:36:01.262Z,78.17
2018-08-07T14:37:09.312Z,78.23
2018-08-07T14:38:17.393Z,79.68
2018-08-07T14:39:25.495Z,79.87
2018-08-07T14:40:33.549Z,80.74
2018-08-07T14:41:41.619Z,79.49